sensor_id;sensor_type;location;lat;lon;timestamp;pressure;altitude;pressure_sealevel;temperature;humidity
22872;BME280;11603;44.910;8.630;2023-02-28T00:00:51;101119.19;;;7.22;100.00
22872;BME280;11603;44.910;8.630;2023-02-28T00:03:17;101121.91;;;7.20;100.00
22872;BME280;11603;44.910;8.630;2023-02-28T00:05:42;101122.69;;;7.22;100.00
22872;BME280;11603;44.910;8.630;2023-02-28T00:08:09;101119.13;;;7.23;100.00
22872;BME280;11603;44.910;8.630;2023-02-28T00:10:35;101113.88;;;7.22;100.00
22872;BME280;11603;44.910;8.630;2023-02-28T00:13:04;101108.38;;;7.27;100.00
22872;BME280;11603;44.910;8.630;2023-02-28T00:15:31;101107.50;;;7.26;100.00
22872;BME280;11603;44.910;8.630;2023-02-28T00:17:57;101097.97;;;7.20;100.00
22872;BME280;11603;44.910;8.630;2023-02-28T00:20:23;101096.41;;;7.15;100.00
22872;BME280;11603;44.910;8.630;2023-02-28T00:22:50;101106.44;;;7.08;100.00
22872;BME280;11603;44.910;8.630;2023-02-28T00:25:18;101107.63;;;7.01;100.00
22872;BME280;11603;44.910;8.630;2023-02-28T00:27:45;101107.44;;;7.06;100.00
22872;BME280;11603;44.910;8.630;2023-02-28T00:30:13;101103.78;;;7.08;100.00
22872;BME280;11603;44.910;8.630;2023-02-28T00:32:39;101111.94;;;7.04;100.00
22872;BME280;11603;44.910;8.630;2023-02-28T00:35:06;101109.09;;;7.08;100.00
22872;BME280;11603;44.910;8.630;2023-02-28T00:37:31;101111.50;;;7.14;100.00
22872;BME280;11603;44.910;8.630;2023-02-28T00:39:57;101102.84;;;7.09;100.00
22872;BME280;11603;44.910;8.630;2023-02-28T00:42:23;101100.38;;;7.05;100.00
22872;BME280;11603;44.910;8.630;2023-02-28T00:44:49;101106.66;;;7.02;100.00
22872;BME280;11603;44.910;8.630;2023-02-28T00:47:15;101103.31;;;6.97;100.00
22872;BME280;11603;44.910;8.630;2023-02-28T00:49:42;101100.84;;;6.93;100.00
22872;BME280;11603;44.910;8.630;2023-02-28T00:52:08;101101.06;;;6.87;100.00
22872;BME280;11603;44.910;8.630;2023-02-28T00:54:34;101107.41;;;6.84;100.00
22872;BME280;11603;44.910;8.630;2023-02-28T00:57:00;101117.03;;;6.87;100.00
22872;BME280;11603;44.910;8.630;2023-02-28T00:59:26;101105.66;;;6.83;100.00
22872;BME280;11603;44.910;8.630;2023-02-28T01:01:52;101106.75;;;6.77;100.00
22872;BME280;11603;44.910;8.630;2023-02-28T01:04:17;101107.31;;;6.86;100.00
22872;BME280;11603;44.910;8.630;2023-02-28T01:06:43;101110.97;;;6.83;100.00
22872;BME280;11603;44.910;8.630;2023-02-28T01:09:10;101120.88;;;6.79;100.00
22872;BME280;11603;44.910;8.630;2023-02-28T01:11:36;101123.75;;;6.73;100.00
22872;BME280;11603;44.910;8.630;2023-02-28T01:14:02;101132.81;;;6.68;100.00
22872;BME280;11603;44.910;8.630;2023-02-28T01:16:29;101125.06;;;6.62;100.00
22872;BME280;11603;44.910;8.630;2023-02-28T01:18:55;101129.34;;;6.66;100.00
22872;BME280;11603;44.910;8.630;2023-02-28T01:21:21;101119.63;;;6.65;100.00
22872;BME280;11603;44.910;8.630;2023-02-28T01:23:48;101131.25;;;6.62;100.00
22872;BME280;11603;44.910;8.630;2023-02-28T01:26:17;101128.66;;;6.61;100.00
22872;BME280;11603;44.910;8.630;2023-02-28T01:28:43;101134.84;;;6.61;100.00
22872;BME280;11603;44.910;8.630;2023-02-28T01:31:09;101124.25;;;6.60;100.00
22872;BME280;11603;44.910;8.630;2023-02-28T01:33:37;101125.22;;;6.59;100.00
22872;BME280;11603;44.910;8.630;2023-02-28T01:36:08;101130.41;;;6.62;100.00
22872;BME280;11603;44.910;8.630;2023-02-28T01:38:35;101129.44;;;6.64;100.00
22872;BME280;11603;44.910;8.630;2023-02-28T01:41:01;101127.56;;;6.66;100.00
22872;BME280;11603;44.910;8.630;2023-02-28T01:43:35;101132.69;;;6.71;100.00
22872;BME280;11603;44.910;8.630;2023-02-28T01:46:15;101133.41;;;6.76;100.00
22872;BME280;11603;44.910;8.630;2023-02-28T01:48:45;101135.09;;;6.78;100.00
22872;BME280;11603;44.910;8.630;2023-02-28T01:51:20;101130.88;;;6.73;100.00
22872;BME280;11603;44.910;8.630;2023-02-28T01:53:50;101117.84;;;6.65;100.00
22872;BME280;11603;44.910;8.630;2023-02-28T01:56:20;101114.44;;;6.62;100.00
22872;BME280;11603;44.910;8.630;2023-02-28T01:58:49;101110.88;;;6.63;100.00
22872;BME280;11603;44.910;8.630;2023-02-28T02:01:16;101110.97;;;6.60;100.00
22872;BME280;11603;44.910;8.630;2023-02-28T02:03:52;101109.13;;;6.62;100.00
22872;BME280;11603;44.910;8.630;2023-02-28T02:06:26;101112.00;;;6.56;100.00
22872;BME280;11603;44.910;8.630;2023-02-28T02:08:53;101112.88;;;6.56;100.00
22872;BME280;11603;44.910;8.630;2023-02-28T02:11:21;101116.41;;;6.57;100.00
22872;BME280;11603;44.910;8.630;2023-02-28T02:17:02;101119.13;;;6.55;100.00
22872;BME280;11603;44.910;8.630;2023-02-28T02:25:39;101106.28;;;6.66;100.00
22872;BME280;11603;44.910;8.630;2023-02-28T02:34:17;101111.56;;;6.68;100.00
22872;BME280;11603;44.910;8.630;2023-02-28T02:36:59;101107.34;;;6.62;100.00
22872;BME280;11603;44.910;8.630;2023-02-28T02:39:33;101109.09;;;6.63;100.00
22872;BME280;11603;44.910;8.630;2023-02-28T02:42:11;101106.75;;;6.54;100.00
22872;BME280;11603;44.910;8.630;2023-02-28T02:47:53;101096.28;;;6.50;100.00
22872;BME280;11603;44.910;8.630;2023-02-28T02:50:26;101105.09;;;6.52;100.00
22872;BME280;11603;44.910;8.630;2023-02-28T02:53:00;101099.78;;;6.52;100.00
22872;BME280;11603;44.910;8.630;2023-02-28T02:55:28;101098.38;;;6.42;100.00
22872;BME280;11603;44.910;8.630;2023-02-28T02:58:01;101105.09;;;6.52;100.00
22872;BME280;11603;44.910;8.630;2023-02-28T03:00:46;101103.34;;;6.51;100.00
22872;BME280;11603;44.910;8.630;2023-02-28T03:03:14;101102.59;;;6.47;100.00
22872;BME280;11603;44.910;8.630;2023-02-28T03:05:46;101107.00;;;6.48;100.00
22872;BME280;11603;44.910;8.630;2023-02-28T03:08:12;101094.16;;;6.36;100.00
22872;BME280;11603;44.910;8.630;2023-02-28T03:10:41;101105.69;;;6.35;100.00
22872;BME280;11603;44.910;8.630;2023-02-28T03:21:51;101107.44;;;6.36;100.00
22872;BME280;11603;44.910;8.630;2023-02-28T03:24:32;101109.28;;;6.34;100.00
22872;BME280;11603;44.910;8.630;2023-02-28T03:27:13;101118.06;;;6.36;100.00
22872;BME280;11603;44.910;8.630;2023-02-28T03:29:51;101121.66;;;6.35;100.00
22872;BME280;11603;44.910;8.630;2023-02-28T03:38:03;101123.72;;;6.27;100.00
22872;BME280;11603;44.910;8.630;2023-02-28T03:40:33;101123.88;;;6.22;100.00
22872;BME280;11603;44.910;8.630;2023-02-28T03:43:06;101113.56;;;6.13;100.00
22872;BME280;11603;44.910;8.630;2023-02-28T03:45:36;101117.47;;;6.03;100.00
22872;BME280;11603;44.910;8.630;2023-02-28T03:48:12;101123.56;;;6.07;100.00
22872;BME280;11603;44.910;8.630;2023-02-28T03:50:45;101127.00;;;6.09;100.00
22872;BME280;11603;44.910;8.630;2023-02-28T03:53:16;101134.06;;;6.10;100.00
22872;BME280;11603;44.910;8.630;2023-02-28T03:58:59;101123.88;;;5.97;100.00
22872;BME280;11603;44.910;8.630;2023-02-28T04:01:42;101131.78;;;5.99;100.00
22872;BME280;11603;44.910;8.630;2023-02-28T04:04:09;101130.16;;;5.95;100.00
22872;BME280;11603;44.910;8.630;2023-02-28T04:06:35;101131.81;;;5.97;100.00
22872;BME280;11603;44.910;8.630;2023-02-28T04:09:03;101130.13;;;5.97;100.00
22872;BME280;11603;44.910;8.630;2023-02-28T04:11:37;101136.28;;;5.97;100.00
22872;BME280;11603;44.910;8.630;2023-02-28T04:14:05;101138.22;;;5.92;100.00
22872;BME280;11603;44.910;8.630;2023-02-28T04:16:32;101124.91;;;5.93;100.00
22872;BME280;11603;44.910;8.630;2023-02-28T04:18:58;101140.94;;;5.90;100.00
22872;BME280;11603;44.910;8.630;2023-02-28T04:21:36;101139.19;;;5.89;100.00
22872;BME280;11603;44.910;8.630;2023-02-28T04:24:10;101133.94;;;5.86;100.00
22872;BME280;11603;44.910;8.630;2023-02-28T04:26:40;101137.50;;;5.87;100.00
22872;BME280;11603;44.910;8.630;2023-02-28T04:29:06;101143.63;;;5.89;100.00
22872;BME280;11603;44.910;8.630;2023-02-28T04:31:33;101149.88;;;5.88;100.00
22872;BME280;11603;44.910;8.630;2023-02-28T04:33:59;101141.13;;;5.84;100.00
22872;BME280;11603;44.910;8.630;2023-02-28T04:36:25;101154.34;;;5.86;100.00
22872;BME280;11603;44.910;8.630;2023-02-28T04:38:50;101135.81;;;5.84;100.00
22872;BME280;11603;44.910;8.630;2023-02-28T04:41:16;101148.09;;;5.88;100.00
22872;BME280;11603;44.910;8.630;2023-02-28T04:43:42;101150.78;;;5.87;100.00
22872;BME280;11603;44.910;8.630;2023-02-28T04:46:08;101154.31;;;5.87;100.00
22872;BME280;11603;44.910;8.630;2023-02-28T04:48:36;101161.53;;;5.82;100.00
22872;BME280;11603;44.910;8.630;2023-02-28T04:51:09;101151.94;;;5.78;100.00
22872;BME280;11603;44.910;8.630;2023-02-28T04:53:36;101157.25;;;5.78;100.00
22872;BME280;11603;44.910;8.630;2023-02-28T04:56:03;101162.66;;;5.75;100.00
22872;BME280;11603;44.910;8.630;2023-02-28T04:58:28;101162.72;;;5.74;100.00
22872;BME280;11603;44.910;8.630;2023-02-28T05:01:02;101157.47;;;5.71;100.00
22872;BME280;11603;44.910;8.630;2023-02-28T05:03:28;101155.78;;;5.70;100.00
22872;BME280;11603;44.910;8.630;2023-02-28T05:05:53;101161.00;;;5.71;100.00
22872;BME280;11603;44.910;8.630;2023-02-28T05:08:19;101170.19;;;5.61;100.00
22872;BME280;11603;44.910;8.630;2023-02-28T05:10:45;101169.25;;;5.64;100.00
22872;BME280;11603;44.910;8.630;2023-02-28T05:13:13;101170.00;;;5.67;100.00
22872;BME280;11603;44.910;8.630;2023-02-28T05:15:39;101181.44;;;5.69;100.00
22872;BME280;11603;44.910;8.630;2023-02-28T05:18:04;101169.81;;;5.73;100.00
22872;BME280;11603;44.910;8.630;2023-02-28T05:20:30;101165.44;;;5.71;100.00
22872;BME280;11603;44.910;8.630;2023-02-28T05:22:57;101168.16;;;5.69;100.00
22872;BME280;11603;44.910;8.630;2023-02-28T05:25:25;101176.19;;;5.68;100.00
22872;BME280;11603;44.910;8.630;2023-02-28T05:27:50;101177.16;;;5.65;100.00
22872;BME280;11603;44.910;8.630;2023-02-28T05:30:16;101177.16;;;5.65;100.00
22872;BME280;11603;44.910;8.630;2023-02-28T05:32:42;101182.56;;;5.62;100.00
22872;BME280;11603;44.910;8.630;2023-02-28T05:35:11;101176.31;;;5.63;100.00
22872;BME280;11603;44.910;8.630;2023-02-28T05:37:38;101179.91;;;5.62;100.00
22872;BME280;11603;44.910;8.630;2023-02-28T05:40:05;101186.84;;;5.66;100.00
22872;BME280;11603;44.910;8.630;2023-02-28T05:42:32;101188.34;;;5.75;100.00
22872;BME280;11603;44.910;8.630;2023-02-28T05:44:58;101186.78;;;5.68;100.00
22872;BME280;11603;44.910;8.630;2023-02-28T05:47:24;101201.81;;;5.69;100.00
22872;BME280;11603;44.910;8.630;2023-02-28T05:49:51;101201.34;;;5.82;100.00
22872;BME280;11603;44.910;8.630;2023-02-28T05:52:16;101199.50;;;5.84;100.00
22872;BME280;11603;44.910;8.630;2023-02-28T05:54:42;101191.44;;;5.89;100.00
22872;BME280;11603;44.910;8.630;2023-02-28T05:57:08;101196.78;;;5.87;100.00
22872;BME280;11603;44.910;8.630;2023-02-28T05:59:33;101202.09;;;5.87;100.00
22872;BME280;11603;44.910;8.630;2023-02-28T06:01:59;101201.22;;;5.87;100.00
22872;BME280;11603;44.910;8.630;2023-02-28T06:04:24;101194.75;;;5.95;100.00
22872;BME280;11603;44.910;8.630;2023-02-28T06:06:50;101195.50;;;5.99;100.00
22872;BME280;11603;44.910;8.630;2023-02-28T06:09:17;101192.84;;;5.99;100.00
22872;BME280;11603;44.910;8.630;2023-02-28T06:11:43;101207.16;;;5.95;100.00
22872;BME280;11603;44.910;8.630;2023-02-28T06:14:17;101202.97;;;5.88;100.00
22872;BME280;11603;44.910;8.630;2023-02-28T06:16:43;101201.22;;;5.87;100.00
22872;BME280;11603;44.910;8.630;2023-02-28T06:19:09;101209.81;;;5.95;100.00
22872;BME280;11603;44.910;8.630;2023-02-28T06:21:35;101209.09;;;5.90;100.00
22872;BME280;11603;44.910;8.630;2023-02-28T06:24:01;101212.44;;;5.97;100.00
22872;BME280;11603;44.910;8.630;2023-02-28T06:26:27;101214.41;;;5.90;100.00
22872;BME280;11603;44.910;8.630;2023-02-28T06:28:53;101224.44;;;5.80;100.00
22872;BME280;11603;44.910;8.630;2023-02-28T06:31:19;101227.97;;;5.81;100.00
22872;BME280;11603;44.910;8.630;2023-02-28T06:33:45;101236.03;;;5.76;100.00
22872;BME280;11603;44.910;8.630;2023-02-28T06:36:12;101243.97;;;5.78;100.00
22872;BME280;11603;44.910;8.630;2023-02-28T06:38:39;101224.44;;;5.80;100.00
22872;BME280;11603;44.910;8.630;2023-02-28T06:41:05;101236.84;;;5.80;100.00
22872;BME280;11603;44.910;8.630;2023-02-28T06:43:34;101228.72;;;5.84;100.00
22872;BME280;11603;44.910;8.630;2023-02-28T06:46:02;101231.28;;;5.87;100.00
22872;BME280;11603;44.910;8.630;2023-02-28T06:48:29;101225.31;;;5.81;100.00
22872;BME280;11603;44.910;8.630;2023-02-28T06:51:12;101239.75;;;5.71;100.00
22872;BME280;11603;44.910;8.630;2023-02-28T06:53:39;101240.78;;;5.67;100.00
22872;BME280;11603;44.910;8.630;2023-02-28T06:56:08;101248.06;;;5.60;100.00
22872;BME280;11603;44.910;8.630;2023-02-28T06:58:34;101238.38;;;5.59;100.00
22872;BME280;11603;44.910;8.630;2023-02-28T07:01:01;101243.91;;;5.51;100.00
22872;BME280;11603;44.910;8.630;2023-02-28T07:03:27;101248.50;;;5.46;100.00
22872;BME280;11603;44.910;8.630;2023-02-28T07:05:52;101252.03;;;5.47;100.00
22872;BME280;11603;44.910;8.630;2023-02-28T07:08:18;101253.66;;;5.51;100.00
22872;BME280;11603;44.910;8.630;2023-02-28T07:10:44;101251.84;;;5.53;100.00
22872;BME280;11603;44.910;8.630;2023-02-28T07:13:09;101258.06;;;5.52;100.00
22872;BME280;11603;44.910;8.630;2023-02-28T07:15:36;101252.78;;;5.50;100.00
22872;BME280;11603;44.910;8.630;2023-02-28T07:18:02;101258.75;;;5.59;100.00
22872;BME280;11603;44.910;8.630;2023-02-28T07:20:29;101274.59;;;5.60;100.00
22872;BME280;11603;44.910;8.630;2023-02-28T07:22:54;101260.22;;;5.67;100.00
22872;BME280;11603;44.910;8.630;2023-02-28T07:25:26;101271.69;;;5.69;100.00
22872;BME280;11603;44.910;8.630;2023-02-28T07:27:53;101268.31;;;5.64;100.00
22872;BME280;11603;44.910;8.630;2023-02-28T07:30:19;101271.03;;;5.61;100.00
22872;BME280;11603;44.910;8.630;2023-02-28T07:32:45;101275.47;;;5.61;100.00
22872;BME280;11603;44.910;8.630;2023-02-28T07:35:10;101270.03;;;5.65;100.00
22872;BME280;11603;44.910;8.630;2023-02-28T07:37:36;101281.50;;;5.66;100.00
22872;BME280;11603;44.910;8.630;2023-02-28T07:40:06;101277.75;;;5.73;100.00
22872;BME280;11603;44.910;8.630;2023-02-28T07:42:36;101283.22;;;5.68;100.00
22872;BME280;11603;44.910;8.630;2023-02-28T07:45:04;101282.69;;;5.85;100.00
22872;BME280;11603;44.910;8.630;2023-02-28T07:47:30;101279.19;;;5.83;100.00
22872;BME280;11603;44.910;8.630;2023-02-28T07:49:56;101288.34;;;5.74;100.00
22872;BME280;11603;44.910;8.630;2023-02-28T07:52:22;101283.16;;;5.70;100.00
22872;BME280;11603;44.910;8.630;2023-02-28T07:54:49;101286.41;;;5.79;100.00
22872;BME280;11603;44.910;8.630;2023-02-28T07:57:15;101288.19;;;5.79;100.00
22872;BME280;11603;44.910;8.630;2023-02-28T07:59:41;101286.22;;;5.85;100.00
22872;BME280;11603;44.910;8.630;2023-02-28T08:02:06;101281.13;;;5.78;100.00
22872;BME280;11603;44.910;8.630;2023-02-28T08:04:32;101285.56;;;5.77;100.00
22872;BME280;11603;44.910;8.630;2023-02-28T08:06:58;101283.03;;;5.74;100.00
22872;BME280;11603;44.910;8.630;2023-02-28T08:09:24;101283.81;;;5.76;100.00
22872;BME280;11603;44.910;8.630;2023-02-28T08:11:49;101291.06;;;5.71;100.00
22872;BME280;11603;44.910;8.630;2023-02-28T08:14:15;101294.19;;;5.85;100.00
22872;BME280;11603;44.910;8.630;2023-02-28T08:16:40;101290.56;;;5.86;100.00
22872;BME280;11603;44.910;8.630;2023-02-28T08:19:08;101288.81;;;5.87;100.00
22872;BME280;11603;44.910;8.630;2023-02-28T08:21:34;101291.47;;;5.87;100.00
22872;BME280;11603;44.910;8.630;2023-02-28T08:24:00;101290.44;;;5.92;100.00
22872;BME280;11603;44.910;8.630;2023-02-28T08:26:25;101284.34;;;5.89;100.00
22872;BME280;11603;44.910;8.630;2023-02-28T08:28:51;101295.53;;;5.99;100.00
22872;BME280;11603;44.910;8.630;2023-02-28T08:31:17;101302.63;;;5.98;100.00
22872;BME280;11603;44.910;8.630;2023-02-28T08:33:43;101292.94;;;5.97;100.00
22872;BME280;11603;44.910;8.630;2023-02-28T08:36:10;101301.72;;;5.99;100.00
22872;BME280;11603;44.910;8.630;2023-02-28T08:38:37;101301.53;;;6.05;100.00
22872;BME280;11603;44.910;8.630;2023-02-28T08:41:05;101279.63;;;5.99;100.00
22872;BME280;11603;44.910;8.630;2023-02-28T08:43:33;101291.09;;;5.99;100.00
22872;BME280;11603;44.910;8.630;2023-02-28T08:45:59;101311.97;;;6.11;100.00
22872;BME280;11603;44.910;8.630;2023-02-28T08:48:29;101301.06;;;6.19;100.00
22872;BME280;11603;44.910;8.630;2023-02-28T08:50:59;101298.91;;;6.31;100.00
22872;BME280;11603;44.910;8.630;2023-02-28T08:53:26;101295.41;;;6.29;100.00
22872;BME280;11603;44.910;8.630;2023-02-28T08:55:59;101298.84;;;6.33;100.00
22872;BME280;11603;44.910;8.630;2023-02-28T08:58:26;101298.38;;;6.47;100.00
22872;BME280;11603;44.910;8.630;2023-02-28T09:00:52;101293.97;;;6.46;100.00
22872;BME280;11603;44.910;8.630;2023-02-28T09:03:17;101307.91;;;6.54;100.00
22872;BME280;11603;44.910;8.630;2023-02-28T09:05:56;101312.78;;;6.66;100.00
22872;BME280;11603;44.910;8.630;2023-02-28T09:08:23;101309.94;;;6.70;100.00
22872;BME280;11603;44.910;8.630;2023-02-28T09:10:50;101308.78;;;6.79;100.00
22872;BME280;11603;44.910;8.630;2023-02-28T09:13:16;101310.56;;;6.78;100.00
22872;BME280;11603;44.910;8.630;2023-02-28T09:15:42;101301.16;;;6.93;100.00
22872;BME280;11603;44.910;8.630;2023-02-28T09:18:07;101310.94;;;6.93;100.00
22872;BME280;11603;44.910;8.630;2023-02-28T09:20:33;101306.28;;;6.99;100.00
22872;BME280;11603;44.910;8.630;2023-02-28T09:22:58;101314.19;;;7.26;100.00
22872;BME280;11603;44.910;8.630;2023-02-28T09:25:24;101305.16;;;7.30;99.44
22872;BME280;11603;44.910;8.630;2023-02-28T09:27:49;101307.13;;;7.48;100.00
22872;BME280;11603;44.910;8.630;2023-02-28T09:30:15;101315.63;;;7.57;97.68
22872;BME280;11603;44.910;8.630;2023-02-28T09:32:41;101303.53;;;7.49;98.09
22872;BME280;11603;44.910;8.630;2023-02-28T09:35:07;101312.16;;;7.32;95.08
22872;BME280;11603;44.910;8.630;2023-02-28T09:37:32;101314.34;;;7.21;99.17
22872;BME280;11603;44.910;8.630;2023-02-28T09:39:57;101316.44;;;7.36;96.22
22872;BME280;11603;44.910;8.630;2023-02-28T09:42:30;101304.84;;;7.60;95.57
22872;BME280;11603;44.910;8.630;2023-02-28T09:44:58;101302.31;;;7.57;97.09
22872;BME280;11603;44.910;8.630;2023-02-28T09:47:34;101299.78;;;7.31;95.04
22872;BME280;11603;44.910;8.630;2023-02-28T09:52:54;101305.63;;;7.64;99.56
22872;BME280;11603;44.910;8.630;2023-02-28T09:57:45;101302.19;;;8.05;94.44
22872;BME280;11603;44.910;8.630;2023-02-28T10:05:41;101302.44;;;8.21;95.31
22872;BME280;11603;44.910;8.630;2023-02-28T10:08:27;101304.34;;;8.18;95.00
22872;BME280;11603;44.910;8.630;2023-02-28T10:10:57;101305.63;;;8.29;97.98
22872;BME280;11603;44.910;8.630;2023-02-28T10:13:33;101313.69;;;8.49;96.48
22872;BME280;11603;44.910;8.630;2023-02-28T10:18:59;101310.53;;;8.82;91.50
22872;BME280;11603;44.910;8.630;2023-02-28T10:21:42;101315.38;;;8.52;87.81
22872;BME280;11603;44.910;8.630;2023-02-28T10:27:00;101315.47;;;8.27;87.96
22872;BME280;11603;44.910;8.630;2023-02-28T10:29:27;101316.13;;;8.34;86.77
22872;BME280;11603;44.910;8.630;2023-02-28T10:31:56;101323.91;;;8.17;85.64
22872;BME280;11603;44.910;8.630;2023-02-28T10:34:22;101329.25;;;8.17;84.30
22872;BME280;11603;44.910;8.630;2023-02-28T10:36:49;101309.22;;;8.06;84.17
22872;BME280;11603;44.910;8.630;2023-02-28T10:39:47;101319.47;;;8.17;85.81
22872;BME280;11603;44.910;8.630;2023-02-28T10:42:27;101323.94;;;8.38;83.73
22872;BME280;11603;44.910;8.630;2023-02-28T10:45:13;101311.22;;;8.45;86.24
22872;BME280;11603;44.910;8.630;2023-02-28T10:50:27;101310.84;;;8.54;90.64
22872;BME280;11603;44.910;8.630;2023-02-28T10:52:54;101304.31;;;8.61;86.55
22872;BME280;11603;44.910;8.630;2023-02-28T10:55:24;101310.72;;;8.57;83.27
22872;BME280;11603;44.910;8.630;2023-02-28T10:57:51;101302.38;;;8.44;84.88
22872;BME280;11603;44.910;8.630;2023-02-28T11:00:20;101304.22;;;8.21;79.78
22872;BME280;11603;44.910;8.630;2023-02-28T11:02:47;101317.19;;;8.30;80.48
22872;BME280;11603;44.910;8.630;2023-02-28T11:05:34;101305.34;;;8.15;82.44
22872;BME280;11603;44.910;8.630;2023-02-28T11:08:10;101307.19;;;8.13;84.90
22872;BME280;11603;44.910;8.630;2023-02-28T11:10:38;101322.44;;;8.09;87.70
22872;BME280;11603;44.910;8.630;2023-02-28T11:13:03;101317.53;;;7.99;86.67
22872;BME280;11603;44.910;8.630;2023-02-28T11:15:33;101308.19;;;7.89;88.33
22872;BME280;11603;44.910;8.630;2023-02-28T11:20:34;101309.06;;;7.66;89.91
22872;BME280;11603;44.910;8.630;2023-02-28T11:23:02;101304.34;;;7.74;97.25
22872;BME280;11603;44.910;8.630;2023-02-28T11:25:31;101298.59;;;7.85;93.19
22872;BME280;11603;44.910;8.630;2023-02-28T11:27:59;101304.53;;;7.91;97.82
22872;BME280;11603;44.910;8.630;2023-02-28T11:30:38;101294.63;;;7.95;92.68
22872;BME280;11603;44.910;8.630;2023-02-28T11:33:29;101302.44;;;7.99;92.49
22872;BME280;11603;44.910;8.630;2023-02-28T11:36:08;101302.19;;;8.05;92.51
22872;BME280;11603;44.910;8.630;2023-02-28T11:38:35;101280.13;;;8.02;92.56
22872;BME280;11603;44.910;8.630;2023-02-28T11:46:50;101278.25;;;8.26;88.27
22872;BME280;11603;44.910;8.630;2023-02-28T11:52:04;101274.50;;;8.31;89.75
22872;BME280;11603;44.910;8.630;2023-02-28T11:54:52;101271.31;;;8.64;85.19
22872;BME280;11603;44.910;8.630;2023-02-28T11:57:29;101265.47;;;8.56;91.55
22872;BME280;11603;44.910;8.630;2023-02-28T12:00:11;101261.97;;;8.33;87.88
22872;BME280;11603;44.910;8.630;2023-02-28T12:08:22;101257.97;;;8.43;90.19
22872;BME280;11603;44.910;8.630;2023-02-28T12:13:48;101247.41;;;8.62;90.45
22872;BME280;11603;44.910;8.630;2023-02-28T12:22:09;101247.19;;;8.67;95.81
22872;BME280;11603;44.910;8.630;2023-02-28T12:27:12;101246.31;;;8.66;88.59
22872;BME280;11603;44.910;8.630;2023-02-28T12:29:50;101254.31;;;8.66;93.35
22872;BME280;11603;44.910;8.630;2023-02-28T12:32:26;101246.16;;;8.69;95.63
22872;BME280;11603;44.910;8.630;2023-02-28T12:34:58;101252.72;;;8.82;90.55
22872;BME280;11603;44.910;8.630;2023-02-28T12:40:14;101245.31;;;8.89;89.54
22872;BME280;11603;44.910;8.630;2023-02-28T12:42:51;101238.41;;;9.04;89.41
22872;BME280;11603;44.910;8.630;2023-02-28T12:45:18;101238.06;;;9.11;89.38
22872;BME280;11603;44.910;8.630;2023-02-28T12:47:48;101227.84;;;9.21;89.24
22872;BME280;11603;44.910;8.630;2023-02-28T12:50:16;101226.59;;;9.28;87.70
22872;BME280;11603;44.910;8.630;2023-02-28T12:52:55;101218.91;;;9.41;86.78
22872;BME280;11603;44.910;8.630;2023-02-28T12:55:30;101222.28;;;9.44;85.70
22872;BME280;11603;44.910;8.630;2023-02-28T12:58:31;101212.66;;;9.59;85.39
22872;BME280;11603;44.910;8.630;2023-02-28T13:09:23;101205.03;;;9.87;84.71
22872;BME280;11603;44.910;8.630;2023-02-28T13:11:50;101197.47;;;10.14;80.68
22872;BME280;11603;44.910;8.630;2023-02-28T13:19:38;101186.41;;;10.39;79.31
22872;BME280;11603;44.910;8.630;2023-02-28T13:22:05;101174.59;;;10.43;78.40
22872;BME280;11603;44.910;8.630;2023-02-28T13:24:49;101168.91;;;10.66;77.05
22872;BME280;11603;44.910;8.630;2023-02-28T13:27:23;101166.88;;;10.87;76.64
22872;BME280;11603;44.910;8.630;2023-02-28T13:29:49;101167.00;;;11.01;75.00
22872;BME280;11603;44.910;8.630;2023-02-28T13:39:50;101152.03;;;10.81;74.90
22872;BME280;11603;44.910;8.630;2023-02-28T13:55:46;101141.88;;;11.03;70.85
22872;BME280;11603;44.910;8.630;2023-02-28T14:06:56;101141.50;;;10.94;68.76
22872;BME280;11603;44.910;8.630;2023-02-28T14:09:34;101135.91;;;10.83;68.92
22872;BME280;11603;44.910;8.630;2023-02-28T14:17:53;101120.59;;;10.85;69.71
22872;BME280;11603;44.910;8.630;2023-02-28T14:20:21;101130.69;;;10.80;69.86
22872;BME280;11603;44.910;8.630;2023-02-28T14:23:24;101137.53;;;10.52;71.91
22872;BME280;11603;44.910;8.630;2023-02-28T14:26:02;101135.84;;;10.34;74.28
22872;BME280;11603;44.910;8.630;2023-02-28T14:29:00;101130.06;;;10.42;74.52
22872;BME280;11603;44.910;8.630;2023-02-28T14:31:50;101126.88;;;10.35;76.31
22872;BME280;11603;44.910;8.630;2023-02-28T14:37:13;101118.38;;;10.27;80.07
22872;BME280;11603;44.910;8.630;2023-02-28T14:39:43;101115.88;;;10.24;80.95
22872;BME280;11603;44.910;8.630;2023-02-28T14:42:30;101115.75;;;9.91;86.51
22872;BME280;11603;44.910;8.630;2023-02-28T14:44:56;101125.28;;;9.97;87.66
22872;BME280;11603;44.910;8.630;2023-02-28T14:47:28;101126.22;;;9.96;87.82
22872;BME280;11603;44.910;8.630;2023-02-28T14:49:55;101116.41;;;9.96;88.35
22872;BME280;11603;44.910;8.630;2023-02-28T14:52:27;101116.25;;;9.99;88.86
22872;BME280;11603;44.910;8.630;2023-02-28T14:54:57;101109.00;;;10.01;88.56
22872;BME280;11603;44.910;8.630;2023-02-28T14:57:27;101112.53;;;9.85;89.65
22872;BME280;11603;44.910;8.630;2023-02-28T15:02:43;101110.44;;;10.08;88.21
22872;BME280;11603;44.910;8.630;2023-02-28T15:07:38;101097.78;;;10.62;81.34
22872;BME280;11603;44.910;8.630;2023-02-28T15:10:27;101103.31;;;10.42;81.35
22872;BME280;11603;44.910;8.630;2023-02-28T15:15:40;101099.63;;;10.44;80.26
22872;BME280;11603;44.910;8.630;2023-02-28T15:18:13;101097.91;;;10.26;80.95
22872;BME280;11603;44.910;8.630;2023-02-28T15:20:42;101097.63;;;9.98;81.37
22872;BME280;11603;44.910;8.630;2023-02-28T15:23:08;101100.91;;;9.86;81.75
22872;BME280;11603;44.910;8.630;2023-02-28T15:25:36;101091.41;;;9.80;83.32
22872;BME280;11603;44.910;8.630;2023-02-28T15:28:01;101093.91;;;9.66;85.56
22872;BME280;11603;44.910;8.630;2023-02-28T15:30:29;101090.06;;;9.71;85.25